Wetterdaten: Woche 06.05.13 - 12.05.13 (KW19)
Datum Zeit Temp. A. Feuchte A. Luftdruck Regen Wind Richtung Taupunkt Windchill Windben
06.05.2013 00:00 8,8 C 89 % 1023,2 hPa 0,0 l/m 0,4 km/h (0 Bft) N-NW 7,1 C 8,8 C 1,5 km/h (1 Bft)
06.05.2013 01:00 8,1 C 90 % 1023,1 hPa 0,0 l/m 0,0 km/h (0 Bft) N 6,6 C 8,1 C 0,0 km/h (0 Bft)
06.05.2013 02:00 7,1 C 92 % 1022,8 hPa 0,0 l/m 0,0 km/h (0 Bft) N 5,9 C 7,1 C 0,0 km/h (0 Bft)
06.05.2013 03:00 6,2 C 93 % 1022,5 hPa 0,0 l/m 0,0 km/h (0 Bft) N 5,1 C 6,2 C 0,0 km/h (0 Bft)
06.05.2013 04:00 5,4 C 94 % 1022,3 hPa 0,0 l/m 0,0 km/h (0 Bft) N 4,5 C 5,4 C 0,0 km/h (0 Bft)
06.05.2013 05:00 5,2 C 95 % 1022,3 hPa 0,0 l/m 0,0 km/h (0 Bft) N 4,5 C 5,2 C 0,0 km/h (0 Bft)
06.05.2013 06:00 5,6 C 95 % 1022,4 hPa 0,0 l/m 0,0 km/h (0 Bft) N 4,9 C 5,6 C 0,0 km/h (0 Bft)
06.05.2013 07:00 8,6 C 95 % 1022,7 hPa 0,0 l/m 0,6 km/h (0 Bft) N 7,8 C 8,6 C 1,2 km/h (1 Bft)
06.05.2013 08:00 13,7 C 85 % 1022,8 hPa 0,0 l/m 0,9 km/h (0 Bft) N-NO 11,1 C 13,7 C 2,1 km/h (1 Bft)
06.05.2013 09:00 17,6 C 67 % 1022,6 hPa 0,0 l/m 1,7 km/h (1 Bft) O-SO 11,3 C 17,6 C 4,3 km/h (1 Bft)
06.05.2013 10:00 20,6 C 50 % 1022,4 hPa 0,0 l/m 4,2 km/h (1 Bft) O 9,6 C 20,6 C 8,9 km/h (2 Bft)
06.05.2013 11:00 21,7 C 44 % 1022,0 hPa 0,0 l/m 5,7 km/h (2 Bft) O-SO 8,8 C 21,6 C 12,2 km/h (2 Bft)
06.05.2013 12:00 22,3 C 41 % 1021,4 hPa 0,0 l/m 7,0 km/h (2 Bft) O-SO 8,2 C 22,0 C 14,9 km/h (3 Bft)
06.05.2013 13:00 21,5 C 45 % 1021,0 hPa 0,0 l/m 5,9 km/h (2 Bft) O-NO 9,1 C 21,3 C 12,9 km/h (3 Bft)
06.05.2013 14:00 22,4 C 44 % 1020,4 hPa 0,0 l/m 6,9 km/h (2 Bft) O 9,5 C 22,1 C 13,8 km/h (3 Bft)
06.05.2013 15:00 21,8 C 42 % 1019,8 hPa 0,0 l/m 6,0 km/h (2 Bft) O-NO 8,3 C 21,6 C 13,0 km/h (3 Bft)
06.05.2013 16:00 22,8 C 39 % 1019,1 hPa 0,0 l/m 6,3 km/h (2 Bft) NO 8,2 C 22,7 C 13,4 km/h (3 Bft)
06.05.2013 17:00 22,2 C 41 % 1018,7 hPa 0,0 l/m 6,4 km/h (2 Bft) O-NO 8,4 C 22,1 C 13,0 km/h (3 Bft)
06.05.2013 18:00 22,1 C 43 % 1018,6 hPa 0,0 l/m 4,8 km/h (1 Bft) NO 8,9 C 22,1 C 10,3 km/h (2 Bft)
06.05.2013 19:00 21,1 C 43 % 1018,5 hPa 0,0 l/m 5,2 km/h (1 Bft) O-NO 8,1 C 21,0 C 10,6 km/h (2 Bft)
06.05.2013 20:00 18,9 C 52 % 1018,6 hPa 0,0 l/m 3,1 km/h (1 Bft) O-NO 8,8 C 18,9 C 6,0 km/h (2 Bft)
06.05.2013 21:00 15,2 C 67 % 1018,8 hPa 0,0 l/m 1,9 km/h (1 Bft) O-NO 9,1 C 15,2 C 3,2 km/h (1 Bft)
06.05.2013 22:00 12,6 C 76 % 1018,9 hPa 0,0 l/m 1,1 km/h (0 Bft) N 8,4 C 12,6 C 2,3 km/h (1 Bft)
06.05.2013 23:00 13,9 C 72 % 1019,0 hPa 0,0 l/m 0,5 km/h (0 Bft) O-SO 8,9 C 13,9 C 2,7 km/h (1 Bft)
07.05.2013 00:00 12,5 C 77 % 1018,9 hPa 0,0 l/m 0,0 km/h (0 Bft) N 8,6 C 12,5 C 0,1 km/h (0 Bft)
07.05.2013 01:00 8,9 C 88 % 1018,5 hPa 0,0 l/m 0,0 km/h (0 Bft) N 6,9 C 8,9 C 0,0 km/h (0 Bft)
07.05.2013 02:00 8,8 C 90 % 1018,3 hPa 0,0 l/m 0,0 km/h (0 Bft) N 7,3 C 8,8 C 0,0 km/h (0 Bft)
07.05.2013 03:00 8,2 C 91 % 1018,2 hPa 0,0 l/m 0,0 km/h (0 Bft) N 6,8 C 8,2 C 0,0 km/h (0 Bft)
07.05.2013 04:00 8,6 C 92 % 1018,1 hPa 0,0 l/m 0,0 km/h (0 Bft) N 7,5 C 8,6 C 0,0 km/h (0 Bft)
07.05.2013 05:00 9,8 C 92 % 1017,9 hPa 0,0 l/m 1,5 km/h (1 Bft) N-NO 8,5 C 9,8 C 2,3 km/h (1 Bft)
07.05.2013 06:00 10,5 C 91 % 1017,9 hPa 0,0 l/m 3,4 km/h (1 Bft) N-NO 9,1 C 10,5 C 6,4 km/h (2 Bft)
07.05.2013 07:00 11,5 C 89 % 1018,0 hPa 0,0 l/m 3,0 km/h (1 Bft) N-NO 9,7 C 11,5 C 5,7 km/h (2 Bft)
07.05.2013 08:00 11,6 C 91 % 1017,7 hPa 2,8 l/m 4,2 km/h (1 Bft) N-NO 10,2 C 11,6 C 6,7 km/h (2 Bft)
07.05.2013 09:00 12,4 C 91 % 1017,9 hPa 0,0 l/m 4,6 km/h (1 Bft) NO 11,0 C 12,4 C 8,6 km/h (2 Bft)
07.05.2013 10:00 13,7 C 90 % 1017,7 hPa 0,0 l/m 5,4 km/h (1 Bft) NO 12,0 C 13,6 C 9,3 km/h (2 Bft)
07.05.2013 11:00 14,3 C 89 % 1017,8 hPa 2,0 l/m 4,1 km/h (1 Bft) NO 12,5 C 14,3 C 8,0 km/h (2 Bft)
07.05.2013 12:00 14,6 C 92 % 1017,6 hPa 1,4 l/m 5,0 km/h (1 Bft) NO 13,4 C 14,6 C 9,4 km/h (2 Bft)
07.05.2013 13:00 15,1 C 90 % 1017,2 hPa 1,8 l/m 6,8 km/h (2 Bft) NO 13,5 C 14,7 C 13,4 km/h (3 Bft)
07.05.2013 14:00 14,1 C 94 % 1017,0 hPa 12,0 l/m 4,3 km/h (1 Bft) N-NW 13,1 C 14,1 C 8,4 km/h (2 Bft)
07.05.2013 15:00 14,1 C 95 % 1016,2 hPa 1,4 l/m 7,8 km/h (2 Bft) N-NO 13,3 C 13,3 C 12,4 km/h (2 Bft)
07.05.2013 16:00 14,1 C 94 % 1015,6 hPa 0,0 l/m 6,2 km/h (2 Bft) N-NO 13,2 C 13,8 C 10,8 km/h (2 Bft)
07.05.2013 17:00 14,4 C 94 % 1015,1 hPa 0,0 l/m 4,9 km/h (1 Bft) N-NW 13,4 C 14,4 C 8,4 km/h (2 Bft)
07.05.2013 18:00 14,7 C 94 % 1014,5 hPa 2,2 l/m 6,1 km/h (2 Bft) N-NO 13,6 C 14,4 C 10,9 km/h (2 Bft)
07.05.2013 19:00 14,5 C 95 % 1014,3 hPa 0,6 l/m 5,0 km/h (1 Bft) N-NO 13,8 C 14,4 C 8,6 km/h (2 Bft)
07.05.2013 20:00 14,4 C 96 % 1014,4 hPa 0,0 l/m 1,6 km/h (1 Bft) N-NO 13,8 C 14,4 C 3,1 km/h (1 Bft)
07.05.2013 21:00 14,1 C 96 % 1014,1 hPa 0,0 l/m 0,3 km/h (0 Bft) N-NO 13,5 C 14,1 C 1,5 km/h (1 Bft)
07.05.2013 22:00 13,7 C 96 % 1013,7 hPa 0,0 l/m 0,5 km/h (0 Bft) N-NO 13,1 C 13,7 C 2,0 km/h (1 Bft)
07.05.2013 23:00 13,7 C 97 % 1013,8 hPa 0,0 l/m 0,0 km/h (0 Bft) N 13,2 C 13,7 C 0,0 km/h (0 Bft)
08.05.2013 00:00 13,8 C 97 % 1013,6 hPa 0,0 l/m 0,0 km/h (0 Bft) N 13,4 C 13,8 C 0,3 km/h (0 Bft)
08.05.2013 01:00 14,0 C 97 % 1013,2 hPa 0,0 l/m 0,0 km/h (0 Bft) N 13,5 C 14,0 C 0,0 km/h (0 Bft)
08.05.2013 02:00 14,2 C 97 % 1012,9 hPa 0,0 l/m 0,1 km/h (0 Bft) S-SW 13,7 C 14,2 C 0,4 km/h (0 Bft)
08.05.2013 03:00 14,1 C 97 % 1012,6 hPa 0,0 l/m 1,1 km/h (1 Bft) S-SO 13,6 C 14,1 C 3,9 km/h (1 Bft)
08.05.2013 04:00 13,7 C 97 % 1012,7 hPa 0,0 l/m 0,1 km/h (0 Bft) N 13,3 C 13,7 C 0,3 km/h (0 Bft)
08.05.2013 05:00 13,5 C 97 % 1012,5 hPa 0,0 l/m 0,1 km/h (0 Bft) N 13,1 C 13,5 C 0,5 km/h (0 Bft)
08.05.2013 06:00 13,4 C 97 % 1012,7 hPa 0,0 l/m 1,7 km/h (1 Bft) SW 12,9 C 13,4 C 4,7 km/h (1 Bft)
08.05.2013 07:00 13,6 C 98 % 1012,9 hPa 0,0 l/m 3,4 km/h (1 Bft) SW 13,2 C 13,6 C 8,9 km/h (2 Bft)
08.05.2013 08:00 14,0 C 97 % 1013,3 hPa 0,0 l/m 3,7 km/h (1 Bft) S-SW 13,5 C 14,0 C 9,4 km/h (2 Bft)
08.05.2013 09:00 15,1 C 96 % 1013,2 hPa 0,0 l/m 2,8 km/h (1 Bft) S-SW 14,5 C 15,1 C 7,4 km/h (2 Bft)
08.05.2013 10:00 17,7 C 86 % 1013,0 hPa 0,0 l/m 3,8 km/h (1 Bft) S 15,3 C 17,7 C 8,7 km/h (2 Bft)
08.05.2013 11:00 19,2 C 78 % 1012,5 hPa 0,0 l/m 5,1 km/h (1 Bft) SW 15,2 C 19,2 C 12,4 km/h (2 Bft)
08.05.2013 12:00 20,5 C 68 % 1012,1 hPa 0,0 l/m 7,7 km/h (2 Bft) S-SW 14,4 C 19,9 C 15,0 km/h (3 Bft)
08.05.2013 13:00 20,5 C 66 % 1011,7 hPa 0,0 l/m 7,0 km/h (2 Bft) S-SW 14,0 C 20,1 C 14,8 km/h (3 Bft)
08.05.2013 14:00 21,3 C 62 % 1011,4 hPa 0,0 l/m 7,2 km/h (2 Bft) S-SW 13,7 C 21,0 C 16,4 km/h (3 Bft)
08.05.2013 15:00 22,2 C 56 % 1011,1 hPa 0,0 l/m 10,1 km/h (2 Bft) SW 13,1 C 21,1 C 21,3 km/h (4 Bft)
08.05.2013 16:00 22,1 C 55 % 1010,7 hPa 0,0 l/m 9,0 km/h (2 Bft) SW 12,8 C 21,3 C 20,0 km/h (4 Bft)
08.05.2013 17:00 21,9 C 54 % 1010,6 hPa 0,0 l/m 8,0 km/h (2 Bft) SW 12,2 C 21,4 C 17,6 km/h (3 Bft)
08.05.2013 18:00 22,2 C 54 % 1010,4 hPa 0,0 l/m 7,0 km/h (2 Bft) S-SW 12,5 C 21,9 C 14,2 km/h (3 Bft)
08.05.2013 19:00 21,3 C 58 % 1010,3 hPa 0,0 l/m 3,0 km/h (1 Bft) S-SW 12,7 C 21,3 C 7,6 km/h (2 Bft)
08.05.2013 20:00 19,6 C 66 % 1010,6 hPa 0,0 l/m 0,2 km/h (0 Bft) S-SW 13,1 C 19,6 C 1,1 km/h (0 Bft)
08.05.2013 21:00 16,5 C 78 % 1011,0 hPa 0,0 l/m 0,0 km/h (0 Bft) N 12,6 C 16,5 C 0,0 km/h (0 Bft)
08.05.2013 22:00 14,5 C 88 % 1011,2 hPa 0,0 l/m 0,0 km/h (0 Bft) N 12,5 C 14,5 C 0,0 km/h (0 Bft)
08.05.2013 23:00 14,3 C 88 % 1011,2 hPa 0,0 l/m 0,0 km/h (0 Bft) N 12,4 C 14,3 C 0,0 km/h (0 Bft)
09.05.2013 00:00 14,3 C 89 % 1011,2 hPa 0,0 l/m 0,0 km/h (0 Bft) N 12,6 C 14,3 C 0,0 km/h (0 Bft)
09.05.2013 01:00 14,3 C 90 % 1011,1 hPa 0,0 l/m 0,0 km/h (0 Bft) N 12,7 C 14,3 C 0,0 km/h (0 Bft)
09.05.2013 02:00 14,5 C 88 % 1010,6 hPa 0,0 l/m 0,0 km/h (0 Bft) N 12,6 C 14,5 C 0,5 km/h (0 Bft)
09.05.2013 03:00 13,5 C 91 % 1010,3 hPa 0,0 l/m 0,0 km/h (0 Bft) N 12,0 C 13,5 C 0,0 km/h (0 Bft)
09.05.2013 04:00 14,1 C 89 % 1010,3 hPa 0,0 l/m 0,0 km/h (0 Bft) N 12,3 C 14,1 C 0,0 km/h (0 Bft)
09.05.2013 05:00 14,5 C 84 % 1010,5 hPa 0,0 l/m 0,0 km/h (0 Bft) N 11,8 C 14,5 C 0,0 km/h (0 Bft)
09.05.2013 06:00 14,0 C 86 % 1010,8 hPa 0,0 l/m 0,0 km/h (0 Bft) N 11,6 C 14,0 C 0,0 km/h (0 Bft)
09.05.2013 07:00 15,6 C 82 % 1011,2 hPa 0,0 l/m 0,0 km/h (0 Bft) N 12,4 C 15,6 C 0,0 km/h (0 Bft)
09.05.2013 08:00 17,4 C 77 % 1011,6 hPa 0,0 l/m 2,5 km/h (1 Bft) W-SW 13,2 C 17,4 C 8,6 km/h (2 Bft)
09.05.2013 09:00 17,5 C 78 % 1012,1 hPa 0,0 l/m 3,0 km/h (1 Bft) SW 13,6 C 17,5 C 7,6 km/h (2 Bft)
09.05.2013 10:00 18,6 C 74 % 1012,3 hPa 0,0 l/m 4,1 km/h (1 Bft) SW 13,8 C 18,6 C 10,5 km/h (2 Bft)
09.05.2013 11:00 18,4 C 73 % 1012,5 hPa 0,0 l/m 3,6 km/h (1 Bft) W-SW 13,5 C 18,4 C 9,8 km/h (2 Bft)
09.05.2013 12:00 18,6 C 73 % 1012,4 hPa 0,0 l/m 4,1 km/h (1 Bft) W 13,8 C 18,6 C 10,1 km/h (2 Bft)
09.05.2013 13:00 18,8 C 71 % 1012,3 hPa 0,0 l/m 3,5 km/h (1 Bft) W-SW 13,4 C 18,8 C 9,1 km/h (2 Bft)
09.05.2013 14:00 20,2 C 63 % 1012,0 hPa 0,0 l/m 3,9 km/h (1 Bft) N-NW 13,0 C 20,2 C 11,2 km/h (2 Bft)
09.05.2013 15:00 20,8 C 60 % 1011,3 hPa 0,0 l/m 4,2 km/h (1 Bft) SW 12,8 C 20,8 C 9,9 km/h (2 Bft)
09.05.2013 16:00 20,5 C 61 % 1010,9 hPa 0,0 l/m 2,4 km/h (1 Bft) W 12,5 C 20,5 C 8,2 km/h (2 Bft)
09.05.2013 17:00 18,4 C 69 % 1011,1 hPa 0,6 l/m 4,4 km/h (1 Bft) NW 12,5 C 18,4 C 10,2 km/h (2 Bft)
09.05.2013 18:00 15,1 C 88 % 1011,6 hPa 3,4 l/m 1,4 km/h (1 Bft) SW 13,2 C 15,1 C 4,5 km/h (1 Bft)
09.05.2013 19:00 15,0 C 92 % 1011,2 hPa 0,0 l/m 0,2 km/h (0 Bft) S-SW 13,6 C 15,0 C 0,7 km/h (0 Bft)
09.05.2013 20:00 15,7 C 90 % 1011,3 hPa 0,0 l/m 3,0 km/h (1 Bft) SW 14,1 C 15,7 C 3,2 km/h (1 Bft)
09.05.2013 21:00 15,7 C 90 % 1011,7 hPa 0,0 l/m 3,2 km/h (1 Bft) SW 14,1 C 15,7 C 3,2 km/h (1 Bft)
09.05.2013 22:00 13,0 C 94 % 1011,8 hPa 0,0 l/m 0,5 km/h (0 Bft) SW 12,1 C 13,0 C 0,8 km/h (0 Bft)
09.05.2013 23:00 11,6 C 96 % 1011,5 hPa 0,0 l/m 0,0 km/h (0 Bft) N 10,9 C 11,6 C 0,0 km/h (0 Bft)
10.05.2013 00:00 10,7 C 96 % 1011,4 hPa 0,0 l/m 0,0 km/h (0 Bft) N 10,1 C 10,7 C 0,0 km/h (0 Bft)
10.05.2013 01:00 10,7 C 96 % 1010,7 hPa 0,0 l/m 0,0 km/h (0 Bft) N 10,1 C 10,7 C 0,0 km/h (0 Bft)
10.05.2013 02:00 11,1 C 96 % 1010,5 hPa 0,4 l/m 0,0 km/h (0 Bft) N 10,6 C 11,1 C 0,0 km/h (0 Bft)
10.05.2013 03:00 11,6 C 97 % 1010,5 hPa 0,0 l/m 0,0 km/h (0 Bft) N 11,1 C 11,6 C 0,0 km/h (0 Bft)
10.05.2013 04:00 11,1 C 97 % 1010,3 hPa 0,0 l/m 0,0 km/h (0 Bft) N 10,6 C 11,1 C 0,0 km/h (0 Bft)
10.05.2013 05:00 11,3 C 97 % 1010,2 hPa 0,0 l/m 0,0 km/h (0 Bft) N 10,8 C 11,3 C 0,0 km/h (0 Bft)
10.05.2013 06:00 10,9 C 97 % 1010,4 hPa 0,2 l/m 0,0 km/h (0 Bft) N 10,4 C 10,9 C 0,1 km/h (0 Bft)
10.05.2013 07:00 11,3 C 97 % 1010,9 hPa 0,0 l/m 1,1 km/h (1 Bft) S-SW 10,9 C 11,3 C 2,4 km/h (1 Bft)
10.05.2013 08:00 12,0 C 96 % 1011,2 hPa 0,0 l/m 1,9 km/h (1 Bft) S-SW 11,3 C 12,0 C 3,2 km/h (1 Bft)
10.05.2013 09:00 14,1 C 83 % 1011,5 hPa 0,0 l/m 2,2 km/h (1 Bft) W 11,2 C 14,1 C 8,0 km/h (2 Bft)
10.05.2013 10:00 15,4 C 68 % 1011,8 hPa 0,0 l/m 5,1 km/h (1 Bft) W 9,4 C 15,4 C 13,3 km/h (3 Bft)
10.05.2013 11:00 16,7 C 58 % 1011,8 hPa 0,0 l/m 6,7 km/h (2 Bft) SW 8,3 C 16,4 C 16,8 km/h (3 Bft)
10.05.2013 12:00 17,0 C 55 % 1011,8 hPa 0,0 l/m 6,8 km/h (2 Bft) SW 8,0 C 16,6 C 17,6 km/h (3 Bft)
10.05.2013 13:00 17,4 C 52 % 1012,1 hPa 0,0 l/m 7,7 km/h (2 Bft) SW 7,6 C 16,8 C 17,6 km/h (3 Bft)
10.05.2013 14:00 17,1 C 53 % 1012,4 hPa 0,0 l/m 5,9 km/h (2 Bft) S-SW 7,5 C 17,0 C 14,9 km/h (3 Bft)
10.05.2013 15:00 17,2 C 55 % 1012,7 hPa 0,0 l/m 5,7 km/h (2 Bft) SW 8,0 C 17,1 C 14,4 km/h (3 Bft)
10.05.2013 16:00 16,4 C 58 % 1013,1 hPa 0,0 l/m 5,7 km/h (2 Bft) W-SW 8,1 C 16,3 C 14,4 km/h (3 Bft)
10.05.2013 17:00 16,2 C 58 % 1013,4 hPa 0,0 l/m 5,3 km/h (1 Bft) W-SW 7,9 C 16,1 C 13,8 km/h (3 Bft)
10.05.2013 18:00 15,8 C 59 % 1013,7 hPa 0,0 l/m 4,7 km/h (1 Bft) S-SW 7,8 C 15,6 C 12,5 km/h (2 Bft)
10.05.2013 19:00 15,3 C 62 % 1014,0 hPa 0,0 l/m 3,1 km/h (1 Bft) W-NW 8,0 C 15,3 C 9,0 km/h (2 Bft)
10.05.2013 20:00 14,6 C 65 % 1014,4 hPa 0,0 l/m 1,9 km/h (1 Bft) W 8,1 C 14,6 C 7,0 km/h (2 Bft)
10.05.2013 21:00 13,5 C 69 % 1014,8 hPa 0,0 l/m 0,3 km/h (0 Bft) N 7,9 C 13,5 C 2,1 km/h (1 Bft)
10.05.2013 22:00 11,3 C 78 % 1015,2 hPa 0,0 l/m 0,0 km/h (0 Bft) N 7,7 C 11,3 C 0,0 km/h (0 Bft)
10.05.2013 23:00 9,8 C 88 % 1015,4 hPa 0,0 l/m 0,0 km/h (0 Bft) N 7,9 C 9,8 C 0,0 km/h (0 Bft)
11.05.2013 00:00 10,0 C 89 % 1015,6 hPa 0,0 l/m 0,0 km/h (0 Bft) N 8,2 C 10,0 C 0,0 km/h (0 Bft)
11.05.2013 01:00 10,4 C 88 % 1015,7 hPa 0,0 l/m 0,0 km/h (0 Bft) N 8,4 C 10,4 C 0,0 km/h (0 Bft)
11.05.2013 02:00 10,4 C 86 % 1015,4 hPa 0,0 l/m 0,0 km/h (0 Bft) N 8,2 C 10,4 C 0,0 km/h (0 Bft)
11.05.2013 03:00 10,4 C 87 % 1015,3 hPa 0,0 l/m 0,0 km/h (0 Bft) N 8,3 C 10,4 C 0,0 km/h (0 Bft)
11.05.2013 04:00 10,5 C 87 % 1015,1 hPa 0,0 l/m 0,4 km/h (0 Bft) S-SW 8,4 C 10,5 C 2,0 km/h (1 Bft)
11.05.2013 05:00 10,4 C 88 % 1015,0 hPa 0,0 l/m 0,5 km/h (0 Bft) S-SW 8,4 C 10,4 C 2,1 km/h (1 Bft)
11.05.2013 06:00 10,8 C 88 % 1015,0 hPa 0,0 l/m 0,8 km/h (0 Bft) W 8,9 C 10,8 C 3,5 km/h (1 Bft)
11.05.2013 07:00 11,4 C 88 % 1015,0 hPa 0,0 l/m 1,3 km/h (1 Bft) S 9,5 C 11,4 C 4,3 km/h (1 Bft)
11.05.2013 08:00 12,2 C 85 % 1015,1 hPa 0,0 l/m 4,0 km/h (1 Bft) S-SW 9,8 C 12,2 C 9,0 km/h (2 Bft)
11.05.2013 09:00 14,1 C 75 % 1014,9 hPa 0,0 l/m 5,3 km/h (1 Bft) S-SW 9,8 C 14,1 C 10,8 km/h (2 Bft)
11.05.2013 10:00 14,6 C 69 % 1014,6 hPa 0,0 l/m 5,2 km/h (1 Bft) SW 9,0 C 14,6 C 12,4 km/h (2 Bft)
11.05.2013 11:00 15,5 C 63 % 1014,3 hPa 0,0 l/m 6,6 km/h (2 Bft) W-SW 8,6 C 15,1 C 15,6 km/h (3 Bft)
11.05.2013 12:00 15,8 C 63 % 1013,8 hPa 0,0 l/m 8,3 km/h (2 Bft) S 8,7 C 14,8 C 16,9 km/h (3 Bft)
11.05.2013 13:00 15,8 C 64 % 1013,3 hPa 0,0 l/m 7,6 km/h (2 Bft) SW 9,0 C 15,1 C 17,3 km/h (3 Bft)
11.05.2013 14:00 16,0 C 64 % 1012,7 hPa 0,0 l/m 8,0 km/h (2 Bft) S-SW 9,3 C 15,2 C 17,0 km/h (3 Bft)
11.05.2013 15:00 16,3 C 60 % 1012,2 hPa 0,0 l/m 7,6 km/h (2 Bft) SW 8,6 C 15,5 C 16,5 km/h (3 Bft)
11.05.2013 16:00 16,6 C 57 % 1011,8 hPa 0,0 l/m 7,6 km/h (2 Bft) SW 8,1 C 15,9 C 15,6 km/h (3 Bft)
11.05.2013 17:00 15,9 C 60 % 1011,5 hPa 0,0 l/m 6,2 km/h (2 Bft) S-SW 8,0 C 15,7 C 13,2 km/h (3 Bft)
11.05.2013 18:00 15,3 C 63 % 1011,3 hPa 0,0 l/m 6,0 km/h (2 Bft) S-SW 8,4 C 14,9 C 13,3 km/h (3 Bft)
11.05.2013 19:00 10,5 C 85 % 1012,4 hPa 0,2 l/m 3,6 km/h (1 Bft) W 8,1 C 10,2 C 9,6 km/h (2 Bft)
11.05.2013 20:00 10,0 C 89 % 1012,3 hPa 0,0 l/m 0,1 km/h (0 Bft) S-SW 8,3 C 10,0 C 0,4 km/h (0 Bft)
11.05.2013 21:00 9,3 C 88 % 1012,6 hPa 0,0 l/m 0,2 km/h (0 Bft) N 7,5 C 9,3 C 1,1 km/h (0 Bft)
11.05.2013 22:00 7,6 C 91 % 1012,7 hPa 0,0 l/m 0,0 km/h (0 Bft) N 6,3 C 7,6 C 0,0 km/h (0 Bft)
11.05.2013 23:00 6,6 C 94 % 1012,4 hPa 0,0 l/m 0,0 km/h (0 Bft) N 5,7 C 6,6 C 0,0 km/h (0 Bft)
12.05.2013 00:00 7,3 C 94 % 1011,9 hPa 0,0 l/m 0,3 km/h (0 Bft) SO 6,4 C 7,3 C 1,1 km/h (0 Bft)
12.05.2013 01:00 8,9 C 90 % 1011,5 hPa 0,0 l/m 3,0 km/h (1 Bft) S-SW 7,4 C 8,9 C 7,3 km/h (2 Bft)
12.05.2013 02:00 9,2 C 89 % 1011,2 hPa 0,0 l/m 3,2 km/h (1 Bft) S-SW 7,5 C 9,2 C 8,9 km/h (2 Bft)
12.05.2013 03:00 9,0 C 89 % 1011,0 hPa 0,0 l/m 2,6 km/h (1 Bft) S 7,3 C 9,0 C 6,9 km/h (2 Bft)
12.05.2013 04:00 8,7 C 89 % 1010,6 hPa 0,0 l/m 1,2 km/h (1 Bft) S-SW 7,1 C 8,7 C 3,9 km/h (1 Bft)
12.05.2013 05:00 8,8 C 91 % 1010,3 hPa 0,0 l/m 2,6 km/h (1 Bft) S-SW 7,4 C 8,8 C 6,6 km/h (2 Bft)
12.05.2013 06:00 9,5 C 89 % 1010,3 hPa 0,0 l/m 3,7 km/h (1 Bft) S-SW 7,8 C 9,5 C 8,7 km/h (2 Bft)
12.05.2013 07:00 11,0 C 83 % 1010,4 hPa 0,0 l/m 5,4 km/h (1 Bft) SW 8,2 C 10,8 C 12,5 km/h (2 Bft)
12.05.2013 08:00 10,9 C 81 % 1010,8 hPa 0,0 l/m 4,7 km/h (1 Bft) S-SW 7,7 C 10,9 C 12,0 km/h (2 Bft)
12.05.2013 09:00 10,6 C 82 % 1011,3 hPa 0,0 l/m 5,1 km/h (1 Bft) W-SW 7,6 C 10,5 C 12,2 km/h (2 Bft)
12.05.2013 10:00 10,2 C 85 % 1011,7 hPa 0,4 l/m 5,2 km/h (1 Bft) SW 7,9 C 10,2 C 13,6 km/h (3 Bft)
12.05.2013 11:00 10,1 C 86 % 1011,8 hPa 0,6 l/m 4,8 km/h (1 Bft) W-SW 7,9 C 10,1 C 12,0 km/h (2 Bft)
12.05.2013 12:00 9,6 C 87 % 1012,2 hPa 0,8 l/m 4,6 km/h (1 Bft) W-NW 7,6 C 9,6 C 5,6 km/h (2 Bft)
12.05.2013 13:00 10,2 C 86 % 1012,3 hPa 0,2 l/m 3,2 km/h (1 Bft) W 8,0 C 10,2 C 9,8 km/h (2 Bft)
12.05.2013 14:00 12,3 C 75 % 1012,2 hPa 0,0 l/m 4,8 km/h (1 Bft) W-NW 8,0 C 12,3 C 12,1 km/h (2 Bft)
12.05.2013 15:00 13,0 C 69 % 1012,3 hPa 0,0 l/m 5,9 km/h (2 Bft) SW 7,3 C 12,8 C 13,7 km/h (3 Bft)
12.05.2013 16:00 12,8 C 69 % 1012,7 hPa 0,0 l/m 6,4 km/h (2 Bft) W-NW 7,2 C 12,4 C 16,2 km/h (3 Bft)
12.05.2013 17:00 11,4 C 77 % 1013,3 hPa 0,0 l/m 5,6 km/h (2 Bft) W-NW 7,4 C 11,1 C 13,6 km/h (3 Bft)
12.05.2013 18:00 12,4 C 71 % 1013,5 hPa 0,0 l/m 5,0 km/h (1 Bft) SW 7,3 C 12,4 C 12,8 km/h (3 Bft)
12.05.2013 19:00 11,9 C 71 % 1014,1 hPa 0,0 l/m 3,9 km/h (1 Bft) W-NW 6,8 C 11,9 C 10,5 km/h (2 Bft)
12.05.2013 20:00 9,6 C 75 % 1014,8 hPa 0,0 l/m 1,9 km/h (1 Bft) W-NW 5,5 C 9,6 C 5,2 km/h (1 Bft)
12.05.2013 21:00 7,5 C 84 % 1015,4 hPa 0,0 l/m 0,0 km/h (0 Bft) N 4,9 C 7,5 C 0,0 km/h (0 Bft)
12.05.2013 22:00 6,0 C 90 % 1015,7 hPa 0,0 l/m 0,0 km/h (0 Bft) N 4,4 C 6,0 C 0,0 km/h (0 Bft)
12.05.2013 23:00 4,8 C 91 % 1015,8 hPa 0,0 l/m 0,0 km/h (0 Bft) N 3,5 C 4,8 C 0,0 km/h (0 Bft)
Min-Datum _ 12.05.13 06.05.13 10.05.13 - 06.05.13 - 12.05.13 12.05.13 06.05.13
_ Min-Zeit 23:50 17:05 02:10 - 00:00 - 23:40 23:50 00:00
Minimum _ 4,4 C 35 % 1010,1 hPa - 0,0 km/h (0 Bft) - 3,3 C 4,4 C 0,0 km/h (0 Bft)
Max-Datum _ 06.05.13 08.05.13 06.05.13 07.05.13 08.05.13 - 08.05.13 06.05.13 11.05.13
_ Max-Zeit 16:25 07:05 00:15 14:20 15:45 - 11:10 16:25 18:55
Maximum _ 23,3 C 98 % 1023,3 hPa 12,0 l/m 13,3 km/h
SW (3 Bft)
- 15,6 C 23,3 C 30,6 km/h
SW (5 Bft)
Durchschnitt _ 13,9 C 80 % 1014,2 hPa #31,0 l/m 2,9 km/h (1 Bft) SW 10,0 C 13,8 C 6,7 km/h (2 Bft)